createdAt,value
2019-05-22T00:00:42.040Z,79.19
2019-05-22T00:03:16.202Z,79.05
2019-05-22T00:05:46.992Z,78.63
2019-05-22T00:08:17.513Z,78.82
2019-05-22T00:10:47.537Z,78.75
2019-05-22T00:13:20.840Z,78.63
2019-05-22T00:15:51.734Z,78.77
2019-05-22T00:18:22.127Z,78.92
2019-05-22T00:20:51.681Z,79.16
2019-05-22T00:23:22.120Z,79.01
2019-05-22T00:25:53.479Z,78.93
2019-05-22T00:28:26.523Z,79.18
2019-05-22T00:30:57.561Z,79.33
2019-05-22T00:33:26.600Z,79.06
2019-05-22T00:35:57.482Z,79.09
2019-05-22T00:38:26.833Z,79.01
2019-05-22T00:40:58.279Z,79.17
2019-05-22T00:43:34.920Z,79.23
2019-05-22T00:46:05.395Z,79.34
2019-05-22T00:48:35.962Z,79.47
2019-05-22T00:51:10.480Z,79.58
2019-05-22T00:53:50.082Z,79.50
2019-05-22T00:56:29.806Z,79.59
2019-05-22T00:59:17.290Z,79.42
2019-05-22T01:01:51.922Z,79.55
2019-05-22T01:04:22.974Z,79.24
2019-05-22T01:06:54.624Z,79.24
2019-05-22T01:09:40.328Z,79.39
2019-05-22T01:12:19.922Z,79.21
2019-05-22T01:14:50.803Z,79.18
2019-05-22T01:17:21.882Z,79.18
2019-05-22T01:19:54.723Z,79.21
2019-05-22T01:22:26.722Z,79.36
2019-05-22T01:24:57.124Z,79.75
2019-05-22T01:27:27.045Z,79.59
2019-05-22T01:29:57.682Z,79.71
2019-05-22T01:32:29.203Z,79.77
2019-05-22T01:34:59.244Z,79.85
2019-05-22T01:37:30.804Z,79.98
2019-05-22T01:40:12.444Z,79.95
2019-05-22T01:42:42.685Z,80.54
2019-05-22T01:45:13.404Z,80.11
2019-05-22T01:47:52.435Z,80.21
2019-05-22T01:50:44.661Z,80.21
2019-05-22T01:53:16.516Z,80.24
2019-05-22T01:55:46.049Z,80.17
2019-05-22T01:58:15.960Z,80.37
2019-05-22T02:00:44.871Z,80.33
2019-05-22T02:03:14.925Z,80.37
2019-05-22T02:05:44.249Z,80.48
2019-05-22T02:08:15.456Z,80.52
2019-05-22T02:10:47.166Z,80.53
2019-05-22T02:13:20.526Z,80.70
2019-05-22T02:15:49.674Z,80.82
2019-05-22T02:18:20.819Z,80.63
2019-05-22T02:20:50.371Z,80.36
2019-05-22T02:23:20.116Z,80.40
2019-05-22T02:25:50.565Z,80.55
2019-05-22T02:28:21.172Z,80.64
2019-05-22T02:30:51.527Z,80.71
2019-05-22T02:33:22.541Z,80.69
2019-05-22T02:35:51.480Z,80.72
2019-05-22T02:38:22.402Z,80.66
2019-05-22T02:40:53.385Z,80.73
2019-05-22T02:43:24.798Z,80.71
2019-05-22T02:45:54.218Z,80.35
2019-05-22T02:48:25.950Z,80.37
2019-05-22T02:50:55.958Z,80.24
2019-05-22T02:53:25.704Z,80.11
2019-05-22T02:55:56.312Z,80.04
2019-05-22T02:58:27.863Z,79.96
2019-05-22T03:01:03.017Z,79.94
2019-05-22T03:03:34.029Z,80.16
2019-05-22T03:06:04.321Z,80.45
2019-05-22T03:08:58.556Z,80.87
2019-05-22T03:11:34.418Z,80.76
2019-05-22T03:14:03.643Z,80.85
2019-05-22T03:16:51.699Z,80.87
2019-05-22T03:19:33.841Z,80.81
2019-05-22T03:22:07.136Z,80.70
2019-05-22T03:24:36.859Z,80.79
2019-05-22T03:27:07.420Z,80.76
2019-05-22T03:29:45.171Z,80.69
2019-05-22T03:32:15.036Z,80.67
2019-05-22T03:34:44.020Z,80.54
2019-05-22T03:37:13.977Z,80.70
2019-05-22T03:39:42.992Z,80.55
2019-05-22T03:42:13.506Z,80.39
2019-05-22T03:44:42.513Z,80.17
2019-05-22T03:47:13.625Z,79.84
2019-05-22T03:49:43.141Z,79.78
2019-05-22T03:52:12.712Z,79.36
2019-05-22T03:54:43.182Z,79.19
2019-05-22T03:57:12.421Z,79.12
2019-05-22T03:59:41.241Z,79.10
2019-05-22T04:02:10.888Z,79.17
2019-05-22T04:04:41.258Z,79.05
2019-05-22T04:07:17.223Z,79.10
2019-05-22T04:09:46.633Z,79.41
2019-05-22T04:12:15.545Z,79.41
2019-05-22T04:14:44.983Z,79.14
2019-05-22T04:17:15.018Z,78.99
2019-05-22T04:19:50.503Z,79.08
2019-05-22T04:22:17.833Z,78.47
2019-05-22T04:24:47.383Z,78.34
2019-05-22T04:27:17.065Z,78.15
2019-05-22T04:29:46.406Z,78.14
2019-05-22T04:32:19.422Z,77.83
2019-05-22T04:34:48.774Z,77.58
2019-05-22T04:37:17.773Z,77.44
2019-05-22T04:39:49.023Z,77.23
2019-05-22T04:42:19.461Z,77.07
2019-05-22T04:45:15.560Z,77.25
2019-05-22T04:47:56.429Z,77.16
2019-05-22T04:50:26.093Z,76.77
2019-05-22T04:52:55.987Z,76.80
2019-05-22T04:55:25.398Z,76.45
2019-05-22T04:57:55.702Z,76.10
2019-05-22T05:00:26.332Z,75.75
2019-05-22T05:02:55.342Z,75.75
2019-05-22T05:05:26.570Z,75.07
2019-05-22T05:07:56.837Z,74.99
2019-05-22T05:10:26.516Z,74.82
2019-05-22T05:12:58.251Z,74.23
2019-05-22T05:15:27.190Z,73.68
2019-05-22T05:17:56.101Z,73.74
2019-05-22T05:20:25.436Z,73.79
2019-05-22T05:22:54.250Z,73.47
2019-05-22T05:25:24.189Z,73.48
2019-05-22T05:27:52.997Z,73.29
2019-05-22T05:30:23.143Z,73.16
2019-05-22T05:32:52.446Z,73.52
2019-05-22T05:35:22.283Z,72.90
2019-05-22T05:37:51.801Z,72.34
2019-05-22T05:40:36.172Z,72.42
2019-05-22T05:43:07.284Z,71.99
2019-05-22T05:45:37.324Z,71.99
2019-05-22T05:48:08.804Z,72.24
2019-05-22T05:50:40.287Z,72.21
2019-05-22T05:53:10.391Z,72.19
2019-05-22T05:55:58.578Z,72.50
2019-05-22T05:58:28.916Z,72.44
2019-05-22T06:01:11.074Z,72.37
2019-05-22T06:03:40.777Z,72.62
2019-05-22T06:06:26.096Z,72.39
2019-05-22T06:08:56.698Z,72.59
2019-05-22T06:11:49.238Z,72.37
2019-05-22T06:14:30.223Z,72.58
2019-05-22T06:17:05.101Z,72.56
2019-05-22T06:19:36.843Z,72.49
2019-05-22T06:22:07.746Z,72.34
2019-05-22T06:24:52.182Z,72.00
2019-05-22T06:27:25.525Z,71.89
2019-05-22T06:30:04.016Z,72.16
2019-05-22T06:32:48.485Z,72.07
2019-05-22T06:35:17.278Z,71.76
2019-05-22T06:38:01.596Z,70.94
2019-05-22T06:40:29.843Z,70.45
2019-05-22T06:43:21.083Z,69.42
2019-05-22T06:45:49.907Z,68.46
2019-05-22T06:48:18.890Z,68.09
2019-05-22T06:50:49.434Z,68.36
2019-05-22T06:53:18.421Z,68.63
2019-05-22T06:55:47.501Z,68.12
2019-05-22T06:58:16.392Z,68.25
2019-05-22T07:00:45.241Z,67.99
2019-05-22T07:03:14.142Z,68.13
2019-05-22T07:05:44.130Z,67.69
2019-05-22T07:08:13.928Z,67.55
2019-05-22T07:10:43.641Z,67.01
2019-05-22T07:13:14.559Z,67.04
2019-05-22T07:15:44.286Z,66.25
2019-05-22T07:18:14.993Z,64.94
2019-05-22T07:20:45.004Z,64.62
2019-05-22T07:23:15.908Z,65.02
2019-05-22T07:25:46.622Z,64.34
2019-05-22T07:28:18.360Z,64.32
2019-05-22T07:30:48.945Z,64.24
2019-05-22T07:33:19.831Z,62.97
2019-05-22T07:36:07.910Z,63.36
2019-05-22T07:38:20.328Z,62.40
2019-05-22T07:40:51.271Z,62.50
2019-05-22T07:43:22.293Z,62.49
2019-05-22T07:45:52.966Z,61.71
2019-05-22T07:48:24.293Z,61.56
2019-05-22T07:50:55.502Z,62.05
2019-05-22T07:53:26.396Z,62.09
2019-05-22T07:55:57.896Z,60.76
2019-05-22T07:58:29.960Z,59.73
2019-05-22T08:01:01.773Z,60.05
2019-05-22T08:03:31.949Z,58.10
2019-05-22T08:06:01.708Z,58.91
2019-05-22T08:08:33.266Z,56.09
2019-05-22T08:11:02.588Z,57.10
2019-05-22T08:13:32.497Z,57.62
2019-05-22T08:16:01.891Z,57.24
2019-05-22T08:18:33.390Z,55.15
2019-05-22T08:21:02.638Z,56.41
2019-05-22T08:23:31.682Z,54.13
2019-05-22T08:26:00.597Z,54.95
2019-05-22T08:28:31.937Z,54.92
2019-05-22T08:31:02.425Z,55.08
2019-05-22T08:33:34.496Z,54.72
2019-05-22T08:36:05.031Z,55.00
2019-05-22T08:38:35.429Z,55.09
2019-05-22T08:41:09.330Z,54.83
2019-05-22T08:44:03.296Z,53.90
2019-05-22T08:46:10.020Z,55.01
2019-05-22T08:48:47.465Z,55.22
2019-05-22T08:51:12.903Z,54.31
2019-05-22T08:53:48.454Z,54.24
2019-05-22T08:56:14.466Z,55.09
2019-05-22T08:58:44.471Z,56.20
2019-05-22T09:01:16.006Z,56.15
2019-05-22T09:03:45.725Z,55.22
2019-05-22T09:06:14.872Z,53.57
2019-05-22T09:08:43.974Z,55.15
2019-05-22T09:11:12.826Z,55.39
2019-05-22T09:13:41.757Z,54.10
2019-05-22T09:16:10.830Z,52.13
2019-05-22T09:18:40.003Z,50.78
2019-05-22T09:21:09.311Z,52.20
2019-05-22T09:23:39.254Z,50.84
2019-05-22T09:26:08.346Z,51.71
2019-05-22T09:28:38.078Z,50.52
2019-05-22T09:31:06.890Z,52.04
2019-05-22T09:33:37.845Z,55.48
2019-05-22T09:36:08.339Z,57.83
2019-05-22T09:38:37.993Z,60.81
2019-05-22T09:41:06.807Z,60.01
2019-05-22T09:43:35.726Z,59.84
2019-05-22T09:46:05.713Z,59.17
2019-05-22T09:48:35.651Z,59.45
2019-05-22T09:51:04.689Z,59.10
2019-05-22T09:53:33.697Z,60.01
2019-05-22T09:56:02.535Z,59.80
2019-05-22T09:58:31.447Z,60.46
2019-05-22T10:01:00.796Z,59.66
2019-05-22T10:03:29.618Z,58.46
2019-05-22T10:05:58.999Z,58.41
2019-05-22T10:08:28.351Z,58.81
2019-05-22T10:10:57.823Z,57.35
2019-05-22T10:13:29.353Z,56.30
2019-05-22T10:15:57.667Z,56.19
2019-05-22T10:18:26.506Z,57.65
2019-05-22T10:20:56.726Z,59.81
2019-05-22T10:23:25.761Z,61.59
2019-05-22T10:25:54.781Z,61.17
2019-05-22T10:28:23.827Z,61.78
2019-05-22T10:30:53.478Z,59.36
2019-05-22T10:33:23.304Z,56.90
2019-05-22T10:35:53.314Z,55.06
2019-05-22T10:38:22.652Z,54.21
2019-05-22T10:40:51.865Z,56.04
2019-05-22T10:43:21.076Z,56.71
2019-05-22T10:45:49.922Z,56.94
2019-05-22T10:48:18.837Z,57.96
2019-05-22T10:50:47.790Z,59.45
2019-05-22T10:53:32.396Z,58.67
2019-05-22T10:55:47.561Z,59.54
2019-05-22T10:58:16.594Z,58.64
2019-05-22T11:00:45.989Z,59.18
2019-05-22T11:03:15.898Z,58.28
2019-05-22T11:05:45.777Z,58.99
2019-05-22T11:08:14.576Z,58.88
2019-05-22T11:10:45.320Z,60.09
2019-05-22T11:13:14.701Z,59.50
2019-05-22T11:15:43.725Z,61.80
2019-05-22T11:18:13.167Z,63.26
2019-05-22T11:20:43.077Z,65.69
2019-05-22T11:23:12.529Z,67.79
2019-05-22T11:25:41.561Z,68.03
2019-05-22T11:28:10.397Z,67.37
2019-05-22T11:30:39.421Z,67.24
2019-05-22T11:33:09.241Z,67.01
2019-05-22T11:35:39.356Z,63.96
2019-05-22T11:38:09.530Z,62.84
2019-05-22T11:40:39.631Z,64.74
2019-05-22T11:43:09.422Z,64.52
2019-05-22T11:45:38.656Z,65.46
2019-05-22T11:48:07.672Z,65.97
2019-05-22T11:50:37.121Z,66.76
2019-05-22T11:53:05.923Z,67.02
2019-05-22T11:55:44.949Z,68.01
2019-05-22T11:58:06.255Z,67.99
2019-05-22T12:00:35.306Z,68.30
2019-05-22T12:03:05.312Z,67.73
2019-05-22T12:05:34.856Z,67.32
2019-05-22T12:08:03.672Z,66.92
2019-05-22T12:10:32.789Z,67.81
2019-05-22T12:13:03.163Z,69.01
2019-05-22T12:15:33.876Z,69.23
2019-05-22T12:18:02.814Z,69.50
2019-05-22T12:20:31.736Z,71.83
2019-05-22T12:23:00.998Z,73.49
2019-05-22T12:25:30.093Z,73.63
2019-05-22T12:27:59.132Z,73.86
2019-05-22T12:30:28.375Z,74.90
2019-05-22T12:32:57.645Z,73.61
2019-05-22T12:35:28.027Z,73.83
2019-05-22T12:37:57.875Z,74.71
2019-05-22T12:40:28.315Z,73.53
2019-05-22T12:42:58.805Z,73.64
2019-05-22T12:45:29.963Z,73.75
2019-05-22T12:47:59.961Z,74.10
2019-05-22T12:50:30.943Z,75.19
2019-05-22T12:53:03.123Z,75.81
2019-05-22T12:55:32.442Z,75.66
2019-05-22T12:58:02.361Z,76.59
2019-05-22T13:00:31.562Z,78.17
2019-05-22T13:03:02.311Z,79.30
2019-05-22T13:05:32.644Z,79.08
2019-05-22T13:08:01.790Z,79.41
2019-05-22T13:10:30.996Z,79.05
2019-05-22T13:12:59.856Z,77.61
2019-05-22T13:15:28.861Z,75.75
2019-05-22T13:18:00.004Z,76.43
2019-05-22T13:20:42.622Z,76.35
2019-05-22T13:23:07.574Z,76.02
2019-05-22T13:25:39.859Z,76.14
2019-05-22T13:28:11.419Z,75.69
2019-05-22T13:30:43.570Z,75.74
2019-05-22T13:33:16.206Z,76.14
2019-05-22T13:35:46.025Z,76.95
2019-05-22T13:38:14.986Z,76.67
2019-05-22T13:40:46.429Z,77.10
2019-05-22T13:43:15.339Z,76.56
2019-05-22T13:45:44.967Z,76.12
2019-05-22T13:48:14.493Z,76.94
2019-05-22T13:50:44.321Z,77.04
2019-05-22T13:53:16.050Z,76.18
2019-05-22T13:55:47.084Z,75.17
2019-05-22T13:58:16.693Z,75.55
2019-05-22T14:00:45.661Z,76.30
2019-05-22T14:03:14.964Z,75.79
2019-05-22T14:05:46.151Z,77.24
2019-05-22T14:08:15.220Z,77.66
2019-05-22T14:10:44.940Z,78.40
2019-05-22T14:13:14.185Z,78.07
2019-05-22T14:15:54.682Z,78.02
2019-05-22T14:18:17.678Z,77.73
2019-05-22T14:20:46.909Z,78.73
2019-05-22T14:23:17.136Z,77.60
2019-05-22T14:25:48.727Z,78.58
2019-05-22T14:28:17.966Z,77.68
2019-05-22T14:30:47.140Z,77.74
2019-05-22T14:33:16.507Z,77.90
2019-05-22T14:35:48.767Z,78.08
2019-05-22T14:38:17.633Z,78.62
2019-05-22T14:40:46.987Z,78.94
2019-05-22T14:43:17.243Z,78.78
2019-05-22T14:45:46.723Z,78.77
2019-05-22T14:48:16.832Z,79.11
2019-05-22T14:50:46.182Z,78.96
2019-05-22T14:53:17.924Z,78.27
2019-05-22T14:55:48.256Z,78.09
2019-05-22T14:58:17.614Z,78.85
2019-05-22T15:00:48.095Z,79.47
2019-05-22T15:03:17.899Z,79.10
2019-05-22T15:05:48.155Z,77.94
2019-05-22T15:08:17.192Z,77.62
2019-05-22T15:10:47.223Z,78.07
2019-05-22T15:13:16.705Z,77.76
2019-05-22T15:15:46.886Z,78.05
2019-05-22T15:18:15.811Z,77.70
2019-05-22T15:20:49.521Z,77.91
2019-05-22T15:23:18.446Z,77.71
2019-05-22T15:25:47.986Z,77.98
2019-05-22T15:28:16.897Z,78.07
2019-05-22T15:30:47.306Z,78.00
2019-05-22T15:33:16.878Z,78.51
2019-05-22T15:35:45.872Z,78.46
2019-05-22T15:38:16.703Z,78.59
2019-05-22T15:40:46.450Z,78.27
2019-05-22T15:43:16.448Z,78.75
2019-05-22T15:45:45.660Z,78.60
2019-05-22T15:48:19.505Z,79.27
2019-05-22T15:50:48.287Z,79.39
2019-05-22T15:53:18.001Z,79.97
2019-05-22T15:55:49.740Z,79.99
2019-05-22T15:58:19.114Z,79.71
2019-05-22T16:00:50.211Z,79.71
2019-05-22T16:03:25.127Z,79.81
2019-05-22T16:05:56.026Z,79.90
2019-05-22T16:08:25.243Z,79.50
2019-05-22T16:10:59.599Z,80.06
2019-05-22T16:13:29.072Z,80.16
2019-05-22T16:16:00.002Z,80.62
2019-05-22T16:18:31.381Z,79.97
2019-05-22T16:21:06.197Z,80.11
2019-05-22T16:23:37.641Z,80.39
2019-05-22T16:26:07.109Z,80.07
2019-05-22T16:28:37.757Z,80.06
2019-05-22T16:31:12.322Z,80.64
2019-05-22T16:33:46.055Z,80.50
2019-05-22T16:36:15.103Z,80.52
2019-05-22T16:38:44.697Z,80.67
2019-05-22T16:41:14.538Z,81.16
2019-05-22T16:43:49.487Z,80.56
2019-05-22T16:46:17.028Z,80.87
2019-05-22T16:48:48.836Z,81.19
2019-05-22T16:51:18.542Z,81.08
2019-05-22T16:53:53.453Z,81.03
2019-05-22T16:56:24.043Z,81.49
2019-05-22T16:58:53.932Z,81.00
2019-05-22T17:01:24.472Z,81.52
2019-05-22T17:03:56.080Z,81.49
2019-05-22T17:06:25.655Z,81.36
2019-05-22T17:08:58.096Z,81.18
2019-05-22T17:11:28.009Z,81.53
2019-05-22T17:14:01.599Z,81.17
2019-05-22T17:16:33.201Z,81.21
2019-05-22T17:19:03.752Z,81.18
2019-05-22T17:21:33.826Z,81.39
2019-05-22T17:24:04.787Z,81.63
2019-05-22T17:26:35.136Z,81.60
2019-05-22T17:29:04.670Z,81.75
2019-05-22T17:31:34.077Z,81.49
2019-05-22T17:34:04.137Z,81.59
2019-05-22T17:36:33.011Z,81.80
2019-05-22T17:39:02.414Z,81.54
2019-05-22T17:41:32.872Z,81.87
2019-05-22T17:44:03.648Z,82.18
2019-05-22T17:46:34.262Z,82.07
2019-05-22T17:49:03.688Z,81.83
2019-05-22T17:51:33.683Z,81.96
2019-05-22T17:54:02.904Z,81.51
2019-05-22T17:56:31.986Z,81.75
2019-05-22T17:59:01.102Z,81.75
2019-05-22T18:01:30.300Z,81.50
2019-05-22T18:03:59.342Z,81.37
2019-05-22T18:06:28.438Z,81.23
2019-05-22T18:08:57.307Z,81.64
2019-05-22T18:11:26.699Z,81.61
2019-05-22T18:14:03.871Z,81.83
2019-05-22T18:16:32.817Z,81.72
2019-05-22T18:19:02.258Z,81.80
2019-05-22T18:21:32.487Z,81.54
2019-05-22T18:24:01.617Z,81.35
2019-05-22T18:26:31.949Z,81.14
2019-05-22T18:29:00.818Z,80.93
2019-05-22T18:31:29.849Z,80.81
2019-05-22T18:33:58.866Z,80.79
2019-05-22T18:36:28.912Z,81.03
2019-05-22T18:38:58.814Z,80.89
2019-05-22T18:41:27.713Z,80.72
2019-05-22T18:43:58.477Z,80.76
2019-05-22T18:46:27.982Z,80.63
2019-05-22T18:48:57.540Z,80.76
2019-05-22T18:51:27.997Z,80.68
2019-05-22T18:53:56.987Z,80.72
2019-05-22T18:56:26.162Z,81.10
2019-05-22T18:58:55.284Z,81.04
2019-05-22T19:01:26.536Z,80.97
2019-05-22T19:03:55.601Z,81.36
2019-05-22T19:06:30.319Z,81.12
2019-05-22T19:08:56.959Z,81.20
2019-05-22T19:11:25.927Z,81.23
2019-05-22T19:13:55.632Z,81.29
2019-05-22T19:16:26.554Z,81.12
2019-05-22T19:18:56.711Z,81.26
2019-05-22T19:21:25.804Z,81.32
2019-05-22T19:23:54.896Z,81.50
2019-05-22T19:26:23.787Z,81.34
2019-05-22T19:28:52.842Z,81.43
2019-05-22T19:31:21.924Z,81.49
2019-05-22T19:33:50.943Z,81.37
2019-05-22T19:36:19.942Z,81.00
2019-05-22T19:38:48.953Z,81.03
2019-05-22T19:41:17.918Z,81.06
2019-05-22T19:43:47.453Z,81.24
2019-05-22T19:46:16.686Z,81.21
2019-05-22T19:48:45.977Z,81.39
2019-05-22T19:51:17.924Z,81.10
2019-05-22T19:53:49.096Z,81.20
2019-05-22T19:56:22.945Z,81.27
2019-05-22T19:58:49.756Z,81.33
2019-05-22T20:01:18.900Z,81.27
2019-05-22T20:03:47.907Z,81.28
2019-05-22T20:06:18.411Z,81.11
2019-05-22T20:08:47.536Z,80.98
2019-05-22T20:11:16.891Z,80.97
2019-05-22T20:13:46.319Z,80.92
2019-05-22T20:16:17.225Z,81.06
2019-05-22T20:18:46.180Z,81.13
2019-05-22T20:21:16.318Z,81.34
2019-05-22T20:23:45.730Z,81.37
2019-05-22T20:26:15.257Z,81.29
2019-05-22T20:28:45.942Z,81.20
2019-05-22T20:31:15.001Z,80.99
2019-05-22T20:33:44.234Z,80.65
2019-05-22T20:36:14.517Z,80.94
2019-05-22T20:38:44.144Z,80.81
2019-05-22T20:41:13.759Z,80.67
2019-05-22T20:43:44.228Z,80.82
2019-05-22T20:46:15.168Z,80.83
2019-05-22T20:48:45.076Z,80.88
2019-05-22T20:51:15.946Z,80.66
2019-05-22T20:53:54.068Z,81.08
2019-05-22T20:56:18.989Z,80.93
2019-05-22T20:58:48.641Z,81.10
2019-05-22T21:01:18.471Z,80.83
2019-05-22T21:03:47.497Z,80.76
2019-05-22T21:06:17.343Z,80.47
2019-05-22T21:08:48.167Z,80.65
2019-05-22T21:11:20.021Z,80.71
2019-05-22T21:13:49.252Z,80.71
2019-05-22T21:16:18.681Z,80.65
2019-05-22T21:18:53.794Z,80.35
2019-05-22T21:21:23.311Z,80.52
2019-05-22T21:23:52.916Z,80.43
2019-05-22T21:26:22.944Z,80.38
2019-05-22T21:28:52.511Z,80.67
2019-05-22T21:31:21.861Z,80.67
2019-05-22T21:33:51.624Z,80.60
2019-05-22T21:36:20.829Z,80.93
2019-05-22T21:38:50.953Z,80.74
2019-05-22T21:41:22.098Z,80.85
2019-05-22T21:43:51.085Z,81.13
2019-05-22T21:46:20.231Z,81.37
2019-05-22T21:48:50.657Z,81.25
2019-05-22T21:51:19.643Z,81.35
2019-05-22T21:53:48.663Z,81.48
2019-05-22T21:56:17.796Z,81.71
2019-05-22T21:58:46.709Z,81.86
2019-05-22T22:01:32.838Z,81.80
2019-05-22T22:04:03.623Z,81.86
2019-05-22T22:06:33.461Z,81.96
2019-05-22T22:09:02.662Z,81.89
2019-05-22T22:11:32.062Z,82.14
2019-05-22T22:14:01.751Z,82.03
2019-05-22T22:16:31.071Z,82.31
2019-05-22T22:18:59.975Z,82.19
2019-05-22T22:21:29.116Z,82.17
2019-05-22T22:23:58.197Z,82.18
2019-05-22T22:26:28.768Z,82.15
2019-05-22T22:31:52.066Z,82.16
2019-05-22T22:34:23.943Z,82.08
2019-05-22T22:36:53.370Z,82.40
2019-05-22T22:39:23.534Z,82.76
2019-05-22T22:41:53.557Z,82.83
2019-05-22T22:44:22.820Z,82.65
2019-05-22T22:46:59.856Z,82.86
2019-05-22T22:49:29.760Z,82.78
2019-05-22T22:51:59.595Z,82.87
2019-05-22T22:54:30.865Z,82.83
2019-05-22T22:57:00.280Z,82.44
2019-05-22T22:59:29.125Z,82.62
2019-05-22T23:02:01.158Z,82.55
2019-05-22T23:04:31.096Z,82.47
2019-05-22T23:07:04.799Z,82.61
2019-05-22T23:09:35.819Z,82.66
2019-05-22T23:12:04.756Z,82.65
2019-05-22T23:14:34.891Z,82.65
2019-05-22T23:17:05.840Z,82.59
2019-05-22T23:19:35.077Z,82.68
2019-05-22T23:22:03.613Z,82.88
2019-05-22T23:24:36.386Z,82.85
2019-05-22T23:27:07.303Z,82.89
2019-05-22T23:29:38.815Z,83.33
2019-05-22T23:32:10.413Z,83.23
2019-05-22T23:34:39.550Z,83.36
2019-05-22T23:37:09.960Z,83.53
2019-05-22T23:39:40.305Z,83.53
2019-05-22T23:42:12.950Z,83.22
2019-05-22T23:44:42.613Z,83.43
2019-05-22T23:47:12.041Z,83.42
2019-05-22T23:49:42.945Z,83.46
2019-05-22T23:52:13.425Z,83.46
2019-05-22T23:54:43.965Z,83.75
2019-05-22T23:57:14.080Z,83.40
2019-05-22T23:59:46.567Z,83.50
